Time;durP1;ratioP1;P1;durP2;ratioP2;P2;SDS_P1;SDS_P2;PMS_P1;PMS_P2;Temp;Humidity;BMP_temperature;BMP_pressure;BME280_temperature;BME280_humidity;BME280_pressure;Samples;Min_cycle;Max_cycle;Signal;HPM_P1;HPM_P2
2023/03/29 00:01:56;;;;;;;2.22;1.80;;;;;;;4.17;100.00;96128.97;5012103;28;20046;-74
2023/03/29 00:04:26;;;;;;;2.65;1.75;;;;;;;4.22;100.00;96130.47;5011931;28;20050;-74
2023/03/29 00:06:53;;;;;;;2.47;1.70;;;;;;;4.22;100.00;96125.34;5005209;28;20053;-75
2023/03/29 00:09:19;;;;;;;2.17;1.80;;;;;;;4.16;100.00;96114.47;5011943;28;20062;-74
2023/03/29 00:11:46;;;;;;;3.08;2.20;;;;;;;4.24;100.00;96109.94;5011388;28;20053;-74
2023/03/29 00:14:13;;;;;;;3.28;1.98;;;;;;;4.19;100.00;96122.06;5011588;28;20393;-75
2023/03/29 00:16:43;;;;;;;2.40;1.98;;;;;;;4.08;100.00;96120.69;5011349;28;20049;-74
2023/03/29 00:19:09;;;;;;;4.53;2.33;;;;;;;4.13;100.00;96117.97;5012147;28;20054;-74
2023/03/29 00:21:36;;;;;;;2.67;1.85;;;;;;;4.20;100.00;96116.06;5011755;28;20141;-74
2023/03/29 00:24:02;;;;;;;2.30;1.95;;;;;;;4.21;100.00;96104.91;5011988;28;20057;-75
2023/03/29 00:26:29;;;;;;;2.50;1.85;;;;;;;4.11;100.00;96109.47;5011655;28;20402;-75
2023/03/29 00:28:56;;;;;;;2.20;1.95;;;;;;;4.18;100.00;96110.97;5012058;28;20049;-75
2023/03/29 00:31:22;;;;;;;3.63;1.80;;;;;;;4.08;100.00;96113.00;5011235;28;20725;-74
2023/03/29 00:33:50;;;;;;;3.55;2.00;;;;;;;4.16;100.00;96105.06;5011707;28;20041;-75
2023/03/29 00:36:16;;;;;;;2.35;1.50;;;;;;;4.26;100.00;96098.72;5001964;28;20524;-74
2023/03/29 00:38:43;;;;;;;3.30;1.67;;;;;;;4.40;100.00;96093.16;5006230;28;20061;-74
2023/03/29 00:41:10;;;;;;;3.10;1.70;;;;;;;4.27;100.00;96105.56;5007049;28;20050;-74
2023/03/29 00:43:55;;;;;;;2.03;1.65;;;;;;;4.26;100.00;96103.84;5011284;28;20050;-74
2023/03/29 00:46:21;;;;;;;1.23;1.00;;;;;;;4.27;100.00;96100.44;5011269;28;20635;-74
2023/03/29 00:48:52;;;;;;;2.58;1.65;;;;;;;4.29;100.00;96110.63;5011374;28;20050;-74
2023/03/29 00:51:20;;;;;;;2.15;1.42;;;;;;;4.31;100.00;96096.88;5011123;28;20045;-74
2023/03/29 00:53:50;;;;;;;2.80;1.73;;;;;;;4.43;100.00;96087.94;5010472;28;20042;-74
2023/03/29 00:56:23;;;;;;;2.70;1.40;;;;;;;4.51;100.00;96080.81;5010658;28;20049;-74
2023/03/29 00:58:53;;;;;;;1.88;1.73;;;;;;;4.40;100.00;96082.91;5004155;28;20504;-74
2023/03/29 01:01:27;;;;;;;2.40;2.13;;;;;;;4.31;100.00;96083.22;5011020;28;20050;-74
2023/03/29 01:04:01;;;;;;;5.25;1.95;;;;;;;4.33;100.00;96084.81;5011249;28;20042;-74
2023/03/29 01:06:32;;;;;;;8.10;2.00;;;;;;;4.27;100.00;96076.50;5008685;28;20053;-74
2023/03/29 01:09:03;;;;;;;3.35;1.60;;;;;;;4.29;100.00;96067.03;5011131;28;20072;-73
2023/03/29 01:11:34;;;;;;;2.63;1.73;;;;;;;4.20;100.00;96075.88;5010814;28;20432;-74
2023/03/29 01:14:03;;;;;;;1.63;1.35;;;;;;;4.27;100.00;96071.38;5011412;28;20046;-74
2023/03/29 01:16:31;;;;;;;7.68;1.80;;;;;;;4.27;100.00;96069.66;5010565;28;20069;-74
2023/03/29 01:19:01;;;;;;;3.40;2.00;;;;;;;4.09;100.00;96071.09;5010957;28;20054;-75
2023/03/29 01:21:32;;;;;;;2.03;1.80;;;;;;;4.05;100.00;96071.25;5010770;28;20058;-74
2023/03/29 01:24:24;;;;;;;3.78;1.67;;;;;;;4.06;100.00;96063.50;5011069;28;20050;-74
2023/03/29 01:26:57;;;;;;;1.60;1.40;;;;;;;4.12;100.00;96067.59;5010677;28;20096;-74
2023/03/29 01:29:31;;;;;;;1.98;1.73;;;;;;;4.11;100.00;96053.91;5009896;28;20056;-74
2023/03/29 01:32:02;;;;;;;1.60;1.50;;;;;;;4.12;100.00;96047.94;5010579;28;20046;-74
2023/03/29 01:34:35;;;;;;;2.75;1.58;;;;;;;4.17;100.00;96039.25;5010784;28;20515;-74
2023/03/29 01:37:05;;;;;;;;;;;;;;;4.17;100.00;96029.81;5010967;28;20136;-74
2023/03/29 01:39:33;;;;;;;2.88;1.77;;;;;;;4.38;100.00;96023.16;5009734;28;20382;-74
2023/03/29 01:42:10;;;;;;;1.55;1.45;;;;;;;4.23;100.00;96023.66;5010560;28;20046;-74
2023/03/29 01:44:46;;;;;;;2.08;1.85;;;;;;;4.03;100.00;96032.84;5010201;28;20050;-74
2023/03/29 01:47:19;;;;;;;3.10;2.22;;;;;;;3.84;100.00;96032.59;5010148;28;20054;-74
2023/03/29 01:49:54;;;;;;;2.78;1.90;;;;;;;3.62;100.00;96021.38;5010353;28;20057;-74
2023/03/29 01:52:26;;;;;;;10.27;2.42;;;;;;;3.59;100.00;96016.34;5008431;28;20050;-74
2023/03/29 01:54:57;;;;;;;1.90;1.58;;;;;;;3.72;100.00;96021.91;5010006;28;20459;-74
2023/03/29 01:57:26;;;;;;;1.95;1.42;;;;;;;3.73;100.00;96026.16;5010317;28;20049;-74
2023/03/29 01:59:56;;;;;;;3.03;1.60;;;;;;;3.64;100.00;96024.72;5010465;28;20460;-74
2023/03/29 02:02:26;;;;;;;7.75;2.13;;;;;;;3.62;100.00;96026.50;5010544;28;20050;-74
2023/03/29 02:04:54;;;;;;;3.63;2.03;;;;;;;3.69;100.00;96042.50;5012275;28;20046;-74
2023/03/29 02:07:25;;;;;;;4.68;2.25;;;;;;;3.59;100.00;96026.56;5013915;28;20100;-74
2023/03/29 02:09:54;;;;;;;3.25;2.13;;;;;;;3.51;100.00;96023.41;5011194;28;20050;-74
2023/03/29 02:12:22;;;;;;;2.03;1.80;;;;;;;3.46;100.00;96013.34;5014090;28;20046;-74
2023/03/29 02:14:48;;;;;;;1.83;1.73;;;;;;;3.55;100.00;96001.94;5014270;28;20045;-74
2023/03/29 02:17:18;;;;;;;2.30;1.95;;;;;;;3.64;100.00;95999.13;5013720;28;20049;-75
2023/03/29 02:19:49;;;;;;;1.98;1.75;;;;;;;3.69;100.00;95988.72;5012688;28;20133;-74
2023/03/29 02:22:22;;;;;;;1.70;1.60;;;;;;;3.71;100.00;95986.91;5014145;28;20093;-74
2023/03/29 02:24:50;;;;;;;1.58;1.48;;;;;;;3.78;100.00;95978.16;5008063;28;20065;-74
2023/03/29 02:27:16;;;;;;;2.17;1.50;;;;;;;3.62;100.00;95970.97;5009971;28;20575;-74
2023/03/29 02:29:45;;;;;;;2.28;1.80;;;;;;;3.67;100.00;95973.41;5011579;28;20054;-74
2023/03/29 02:32:20;;;;;;;2.72;2.03;;;;;;;3.80;100.00;95958.47;5013454;28;20081;-74
2023/03/29 02:34:51;;;;;;;1.80;1.63;;;;;;;3.84;100.00;95953.19;5010780;28;20685;-74
2023/03/29 02:37:20;;;;;;;1.88;1.65;;;;;;;3.85;100.00;95948.88;5013236;28;20500;-74
2023/03/29 02:39:49;;;;;;;2.38;1.85;;;;;;;3.80;100.00;95943.09;5006620;28;20420;-74
2023/03/29 02:42:19;;;;;;;1.90;1.70;;;;;;;3.60;100.00;95942.03;5013505;28;20119;-74
2023/03/29 02:44:49;;;;;;;2.58;1.88;;;;;;;3.69;100.00;95934.94;5005885;28;20073;-74
2023/03/29 02:47:22;;;;;;;2.47;1.83;;;;;;;3.67;100.00;95935.00;5013056;28;20054;-74
2023/03/29 02:49:48;;;;;;;2.22;1.98;;;;;;;3.46;100.00;95935.69;5013379;28;20042;-74
2023/03/29 02:52:19;;;;;;;3.08;2.17;;;;;;;3.51;100.00;95926.94;5013389;28;20054;-74
2023/03/29 02:54:49;;;;;;;3.75;2.10;;;;;;;3.58;100.00;95930.97;5006143;28;20042;-74
2023/03/29 02:57:15;;;;;;;3.42;2.33;;;;;;;3.60;100.00;95936.06;5012565;28;20054;-74
2023/03/29 02:59:43;;;;;;;2.88;1.95;;;;;;;3.49;100.00;95946.66;5013049;28;20053;-74
2023/03/29 03:02:12;;;;;;;3.40;2.20;;;;;;;3.43;100.00;95946.84;5013228;28;20129;-74
2023/03/29 03:04:40;;;;;;;2.03;1.70;;;;;;;3.41;100.00;95943.50;5012934;28;20133;-74
2023/03/29 03:07:06;;;;;;;3.30;2.22;;;;;;;3.39;100.00;95942.72;5012876;28;20049;-74
2023/03/29 03:09:34;;;;;;;2.90;2.08;;;;;;;3.47;100.00;95939.91;5013177;28;20050;-74
2023/03/29 03:12:00;;;;;;;2.05;1.85;;;;;;;3.53;100.00;95939.72;5013613;28;20049;-74
2023/03/29 03:14:28;;;;;;;3.17;1.80;;;;;;;3.70;100.00;95941.72;5012955;28;20500;-74
2023/03/29 03:16:56;;;;;;;3.53;1.70;;;;;;;3.75;100.00;95939.84;5012075;28;20075;-74
2023/03/29 03:19:23;;;;;;;3.30;1.65;;;;;;;3.79;100.00;95937.13;5013275;28;20456;-74
2023/03/29 03:21:50;;;;;;;1.40;1.30;;;;;;;3.90;100.00;95943.63;5012790;28;20053;-74
2023/03/29 03:24:17;;;;;;;1.60;1.45;;;;;;;3.83;100.00;95948.13;5012685;28;20512;-74
2023/03/29 03:26:45;;;;;;;1.67;1.52;;;;;;;3.80;100.00;95936.25;5012303;28;20096;-74
2023/03/29 03:29:11;;;;;;;1.95;1.75;;;;;;;3.79;100.00;95941.44;5012926;28;20062;-74
2023/03/29 03:31:39;;;;;;;1.98;1.55;;;;;;;3.72;100.00;95942.50;5012655;28;20045;-74
2023/03/29 03:34:07;;;;;;;2.10;1.70;;;;;;;3.58;100.00;95933.53;5008149;28;20052;-74
2023/03/29 03:36:33;;;;;;;1.67;1.58;;;;;;;3.62;100.00;95936.84;5012292;28;20050;-74
2023/03/29 03:39:04;;;;;;;2.72;1.98;;;;;;;3.68;100.00;95928.13;5013003;28;20137;-74
2023/03/29 03:41:31;;;;;;;3.53;2.20;;;;;;;3.50;100.00;95932.97;5012647;28;20046;-74
2023/03/29 03:43:57;;;;;;;3.10;2.05;;;;;;;3.61;100.00;95935.19;5012424;28;20125;-74
2023/03/29 03:46:24;;;;;;;1.70;1.52;;;;;;;3.51;100.00;95931.25;5009757;28;20046;-74
2023/03/29 03:48:51;;;;;;;2.15;1.63;;;;;;;3.55;100.00;95935.38;5012277;28;20046;-74
2023/03/29 03:51:17;;;;;;;4.18;1.83;;;;;;;3.59;100.00;95931.81;5011744;28;20053;-74
2023/03/29 03:53:44;;;;;;;2.13;1.38;;;;;;;3.57;100.00;95928.50;5012260;28;20535;-74
2023/03/29 03:56:12;;;;;;;2.33;1.65;;;;;;;3.66;100.00;95930.72;5010364;28;20054;-74
2023/03/29 03:58:39;;;;;;;2.70;1.60;;;;;;;3.71;100.00;95933.13;5012318;28;20125;-74
2023/03/29 04:01:07;;;;;;;4.32;1.98;;;;;;;3.79;100.00;95937.13;5011345;28;20492;-74
2023/03/29 04:03:33;;;;;;;5.50;1.20;;;;;;;3.84;100.00;95937.81;5011987;28;20069;-74
2023/03/29 04:06:01;;;;;;;1.80;1.15;;;;;;;3.75;100.00;95938.13;5012130;28;20505;-74
2023/03/29 04:08:27;;;;;;;2.17;1.50;;;;;;;3.74;100.00;95940.72;5011563;28;20053;-74
2023/03/29 04:10:55;;;;;;;1.20;1.10;;;;;;;3.76;100.00;95944.09;5011384;28;20532;-74
2023/03/29 04:13:23;;;;;;;1.65;1.40;;;;;;;3.73;100.00;95942.44;5009476;28;20053;-74
2023/03/29 04:15:52;;;;;;;2.15;1.40;;;;;;;3.60;100.00;95944.59;5011930;28;20037;-74
2023/03/29 04:18:19;;;;;;;1.40;1.30;;;;;;;3.61;100.00;95948.81;5006945;28;20496;-73
2023/03/29 04:20:46;;;;;;;1.35;1.10;;;;;;;3.78;100.00;95945.72;5011046;28;20076;-73
2023/03/29 04:23:13;;;;;;;1.33;1.15;;;;;;;3.63;100.00;95941.06;5011929;28;20112;-74
2023/03/29 04:25:40;;;;;;;1.98;1.63;;;;;;;3.40;100.00;95945.22;5011498;28;20068;-74
2023/03/29 04:28:08;;;;;;;3.05;1.60;;;;;;;3.33;100.00;95936.06;5011007;28;20512;-74
2023/03/29 04:30:36;;;;;;;2.05;1.63;;;;;;;3.25;100.00;95937.19;5009029;28;20525;-74
2023/03/29 04:33:02;;;;;;;3.28;2.10;;;;;;;3.34;100.00;95931.78;5011259;28;20504;-74
2023/03/29 04:35:29;;;;;;;2.10;1.80;;;;;;;3.37;100.00;95929.13;5011277;28;20094;-74
2023/03/29 04:37:56;;;;;;;3.15;1.95;;;;;;;3.40;100.00;95927.28;5011246;28;20053;-74
2023/03/29 04:40:22;;;;;;;4.05;2.13;;;;;;;3.40;100.00;95922.16;5011122;28;20051;-74
2023/03/29 04:42:50;;;;;;;3.38;2.08;;;;;;;3.40;100.00;95926.47;5011472;28;20144;-74
2023/03/29 04:45:17;;;;;;;4.60;2.50;;;;;;;3.60;100.00;95920.72;5011235;28;20175;-75
2023/03/29 04:47:45;;;;;;;6.40;3.63;;;;;;;3.72;100.00;95920.28;5009160;28;20053;-74
2023/03/29 04:50:13;;;;;;;7.82;3.45;;;;;;;3.57;100.00;95925.94;5011408;28;20053;-74
2023/03/29 04:52:40;;;;;;;10.85;4.47;;;;;;;3.51;100.00;95928.69;5011159;28;20103;-74
2023/03/29 04:55:08;;;;;;;14.15;7.90;;;;;;;3.55;100.00;95931.09;5011398;28;20058;-74
2023/03/29 04:57:34;;;;;;;13.90;8.05;;;;;;;3.54;100.00;95934.53;5010307;28;20551;-74
2023/03/29 05:00:01;;;;;;;14.00;9.10;;;;;;;3.67;100.00;95932.44;5009421;28;20057;-74
2023/03/29 05:02:31;;;;;;;14.27;7.43;;;;;;;3.75;100.00;95932.16;5008252;28;20078;-74
2023/03/29 05:04:58;;;;;;;15.88;6.47;;;;;;;3.63;100.00;95936.81;5011421;28;20128;-74
2023/03/29 05:07:25;;;;;;;7.38;5.35;;;;;;;3.61;100.00;95940.31;5010756;28;20062;-74
2023/03/29 05:09:52;;;;;;;9.05;3.65;;;;;;;3.75;100.00;95940.69;5010838;28;20501;-74
2023/03/29 05:12:18;;;;;;;4.00;2.92;;;;;;;3.69;100.00;95940.88;5010928;28;20524;-74
2023/03/29 05:14:45;;;;;;;3.97;2.40;;;;;;;3.73;100.00;95939.06;5010767;28;20493;-74
2023/03/29 05:17:12;;;;;;;2.85;2.03;;;;;;;3.71;100.00;95945.94;5010916;28;20108;-74
2023/03/29 05:19:38;;;;;;;2.78;2.03;;;;;;;3.71;100.00;95943.38;5010981;28;20432;-74
2023/03/29 05:22:06;;;;;;;3.85;2.28;;;;;;;3.73;100.00;95950.13;5010821;28;20046;-74
2023/03/29 05:24:32;;;;;;;4.45;2.30;;;;;;;3.76;100.00;95951.75;5010793;28;20057;-74
2023/03/29 05:26:59;;;;;;;5.43;2.25;;;;;;;3.76;100.00;95946.66;5010633;28;20057;-74
2023/03/29 05:29:25;;;;;;;3.42;2.50;;;;;;;3.78;100.00;95944.84;5010206;28;20057;-74
2023/03/29 05:31:52;;;;;;;3.22;2.58;;;;;;;3.82;100.00;95947.28;5006869;28;20108;-75
2023/03/29 05:34:19;;;;;;;4.53;2.35;;;;;;;3.87;100.00;95949.69;5010185;28;20054;-74
2023/03/29 05:36:45;;;;;;;4.07;3.05;;;;;;;3.95;100.00;95952.00;5010049;28;20046;-75
2023/03/29 05:39:14;;;;;;;4.15;2.63;;;;;;;4.02;100.00;95954.28;5010854;28;20053;-75
2023/03/29 05:41:40;;;;;;;4.75;2.75;;;;;;;4.13;100.00;95956.47;5014174;28;20050;-75
2023/03/29 05:44:07;;;;;;;2.70;2.30;;;;;;;4.18;100.00;95952.03;5014103;28;20061;-75
2023/03/29 05:46:34;;;;;;;7.60;2.08;;;;;;;4.24;100.00;95949.25;5014322;28;20378;-73
2023/03/29 05:49:00;;;;;;;2.35;2.00;;;;;;;4.33;100.00;95954.06;5014388;28;20052;-74
2023/03/29 05:51:27;;;;;;;2.13;1.92;;;;;;;4.41;100.00;95956.34;5015400;28;20081;-74
2023/03/29 05:53:53;;;;;;;3.90;2.00;;;;;;;4.41;100.00;95955.50;5013350;28;20402;-75
2023/03/29 05:56:21;;;;;;;4.65;2.10;;;;;;;4.43;100.00;95967.41;5011976;28;20053;-75
2023/03/29 05:58:48;;;;;;;2.22;1.67;;;;;;;4.45;100.00;95955.38;5010249;28;20046;-74
2023/03/29 06:01:16;;;;;;;4.25;2.20;;;;;;;4.49;100.00;95954.38;5014242;28;20096;-74
2023/03/29 06:03:44;;;;;;;5.53;2.85;;;;;;;4.54;100.00;95946.50;5014380;28;20137;-74
2023/03/29 06:06:14;;;;;;;2.10;1.70;;;;;;;4.65;100.00;95948.69;5014090;28;20408;-74
2023/03/29 06:08:40;;;;;;;3.60;2.47;;;;;;;4.60;100.00;95951.41;5013888;28;20053;-74
2023/03/29 06:11:09;;;;;;;3.30;1.77;;;;;;;4.57;100.00;95956.66;5014197;28;20065;-74
2023/03/29 06:13:37;;;;;;;3.10;2.08;;;;;;;4.67;100.00;95963.09;5013884;28;20437;-76
2023/03/29 06:16:04;;;;;;;4.10;2.30;;;;;;;4.78;100.00;95958.44;5014180;28;20539;-75
2023/03/29 06:18:32;;;;;;;5.70;4.18;;;;;;;4.80;100.00;95955.81;5014935;28;20061;-75
2023/03/29 06:20:59;;;;;;;5.90;3.72;;;;;;;4.73;100.00;95962.88;5014749;28;20050;-76
2023/03/29 06:23:25;;;;;;;5.72;3.70;;;;;;;4.67;100.00;95969.97;5013975;28;20496;-76
2023/03/29 06:25:52;;;;;;;8.65;4.32;;;;;;;4.49;100.00;95967.19;5014577;28;20137;-76
2023/03/29 06:28:19;;;;;;;5.40;3.83;;;;;;;4.51;100.00;95973.09;5013779;28;20052;-75
2023/03/29 06:30:48;;;;;;;5.30;3.60;;;;;;;4.54;100.00;95972.97;5014390;28;20046;-75
2023/03/29 06:33:15;;;;;;;4.53;3.58;;;;;;;4.54;100.00;95982.41;5014276;28;20061;-76
2023/03/29 06:35:43;;;;;;;5.75;4.72;;;;;;;4.60;100.00;95987.31;5012358;28;20116;-74
2023/03/29 06:38:10;;;;;;;5.45;4.65;;;;;;;4.55;100.00;95989.19;5013434;28;20420;-74
2023/03/29 06:40:38;;;;;;;7.03;3.92;;;;;;;4.56;100.00;95988.28;5013409;28;20053;-74
2023/03/29 06:43:05;;;;;;;6.85;4.10;;;;;;;4.53;100.00;95988.44;5013646;28;20049;-74
2023/03/29 06:45:34;;;;;;;3.65;2.60;;;;;;;4.38;100.00;95991.53;5013561;28;20096;-75
2023/03/29 06:48:02;;;;;;;4.22;2.60;;;;;;;4.40;100.00;95988.00;5013115;28;20085;-75
2023/03/29 06:50:29;;;;;;;3.22;2.33;;;;;;;4.48;100.00;95978.31;5012346;28;20074;-75
2023/03/29 06:52:56;;;;;;;5.05;2.60;;;;;;;4.52;100.00;95979.03;5012635;28;20504;-74
2023/03/29 06:55:23;;;;;;;4.35;2.20;;;;;;;4.67;100.00;95978.50;5013376;28;20042;-74
2023/03/29 06:57:49;;;;;;;3.10;1.70;;;;;;;4.84;100.00;95967.63;5013147;28;20042;-74
2023/03/29 07:00:18;;;;;;;4.32;2.33;;;;;;;5.00;100.00;95970.44;5013259;28;20050;-75
2023/03/29 07:02:44;;;;;;;3.40;2.72;;;;;;;5.12;100.00;95970.00;5010710;28;20046;-76
2023/03/29 07:05:13;;;;;;;7.20;3.13;;;;;;;5.24;100.00;95966.94;5013265;28;20508;-76
2023/03/29 07:07:59;;;;;;;3.88;2.72;;;;;;;5.32;100.00;95979.50;5013365;28;20046;-76
2023/03/29 07:10:31;;;;;;;4.90;3.10;;;;;;;5.43;100.00;95985.06;5011029;28;20042;-73
2023/03/29 07:12:57;;;;;;;4.13;2.50;;;;;;;5.57;100.00;95989.66;5012735;28;20056;-73
2023/03/29 07:15:25;;;;;;;3.50;1.45;;;;;;;5.50;100.00;95983.91;5010105;28;20046;-75
2023/03/29 07:17:51;;;;;;;4.57;2.22;;;;;;;5.54;100.00;95992.34;5012230;28;20564;-74
2023/03/29 07:20:21;;;;;;;3.08;2.10;;;;;;;5.56;100.00;95999.09;5012906;28;20104;-74
2023/03/29 07:22:49;;;;;;;4.88;1.92;;;;;;;5.59;100.00;96001.53;5013009;28;20046;-74
2023/03/29 07:25:17;;;;;;;3.20;1.85;;;;;;;5.67;100.00;96001.22;5012823;28;20120;-74
2023/03/29 07:27:45;;;;;;;3.35;1.88;;;;;;;5.79;100.00;96003.31;5009637;28;20069;-75
2023/03/29 07:30:15;;;;;;;3.45;1.90;;;;;;;5.91;100.00;96009.69;5012021;28;20050;-74
2023/03/29 07:32:44;;;;;;;4.00;1.83;;;;;;;6.00;100.00;96003.38;5013157;28;20132;-74
2023/03/29 07:35:12;;;;;;;4.22;2.35;;;;;;;6.07;100.00;96008.19;5007342;28;20518;-76
2023/03/29 07:37:41;;;;;;;8.63;2.20;;;;;;;6.09;100.00;96009.88;5012094;28;20049;-76
2023/03/29 07:40:14;;;;;;;2.42;1.50;;;;;;;6.15;100.00;96013.00;5008534;28;20097;-76
2023/03/29 07:42:42;;;;;;;2.90;1.77;;;;;;;6.23;100.00;96013.56;5012369;28;20119;-76
2023/03/29 07:45:12;;;;;;;2.25;1.98;;;;;;;6.35;100.00;96006.22;5010738;28;20049;-76
2023/03/29 07:47:39;;;;;;;3.53;1.92;;;;;;;6.35;100.00;96014.78;5012127;28;20104;-76
2023/03/29 07:50:07;;;;;;;5.20;2.17;;;;;;;6.45;100.00;96015.19;5012693;28;20045;-76
2023/03/29 07:52:34;;;;;;;7.13;2.10;;;;;;;6.52;100.00;96017.44;5011162;28;20053;-76
2023/03/29 07:55:02;;;;;;;2.05;1.85;;;;;;;6.60;100.00;96006.84;5012312;28;20050;-76
2023/03/29 07:57:29;;;;;;;6.20;2.58;;;;;;;6.67;100.00;96012.53;5012024;28;20058;-77
2023/03/29 07:59:55;;;;;;;3.15;2.10;;;;;;;6.77;100.00;96008.66;5012483;28;20042;-76
2023/03/29 08:02:22;;;;;;;6.45;2.20;;;;;;;6.83;100.00;96013.56;5012077;28;20081;-77
2023/03/29 08:04:48;;;;;;;4.28;2.40;;;;;;;6.95;100.00;96012.19;5012196;28;20053;-77
2023/03/29 08:07:17;;;;;;;3.58;2.30;;;;;;;7.07;100.00;96005.63;5012117;28;20053;-76
2023/03/29 08:09:44;;;;;;;2.95;1.95;;;;;;;7.15;100.00;96003.53;5008236;28;20050;-76
2023/03/29 08:12:12;;;;;;;;;;;;;;;7.23;100.00;96009.16;5012919;28;20416;-77
2023/03/29 08:14:38;;;;;;;;;;;;;;;7.32;100.00;96003.63;5007624;28;19929;-76
2023/03/29 08:17:05;;;;;;;;;;;;;;;7.40;100.00;96009.25;5011817;28;19928;-75
2023/03/29 08:19:31;;;;;;;;;;;;;;;7.46;100.00;96003.81;5011153;28;19925;-75
2023/03/29 08:21:57;;;;;;;;;;;;;;;7.51;100.00;96009.56;5012551;28;19960;-76
2023/03/29 08:24:24;;;;;;;;;;;;;;;7.61;100.00;96001.44;5012532;28;20603;-75
2023/03/29 08:26:50;;;;;;;;;;;;;;;7.63;100.00;96022.78;5011788;28;19928;-75
2023/03/29 08:29:18;;;;;;;;;;;;;;;7.64;100.00;96014.16;5012402;28;19925;-75
2023/03/29 08:31:44;;;;;;;;;;;;;;;7.76;100.00;96013.59;5012004;28;19921;-75
2023/03/29 08:34:10;;;;;;;;;;;;;;;7.72;100.00;96014.63;5011979;28;19921;-75
2023/03/29 08:36:36;;;;;;;;;;;;;;;7.79;100.00;96010.88;5011652;28;19964;-76
2023/03/29 08:39:04;;;;;;;;;;;;;;;7.78;100.00;96016.91;5009843;28;19925;-76
2023/03/29 08:41:36;;;;;;;;;;;;;;;7.85;100.00;96015.72;5012320;28;19926;-76
2023/03/29 08:44:11;;;;;;;;;;;;;;;7.89;100.00;96006.91;5012308;28;19925;-76
2023/03/29 08:46:43;;;;;;;;;;;;;;;7.94;100.00;96017.03;5011827;28;19928;-76
2023/03/29 08:49:10;;;;;;;;;;;;;;;7.97;100.00;96019.44;5012130;28;19922;-75
2023/03/29 08:51:39;;;;;;;;;;;;;;;8.05;100.00;96006.19;5012023;28;19968;-75
2023/03/29 08:54:07;;;;;;;;;;;;;;;8.17;100.00;96005.56;5011214;28;20339;-76
2023/03/29 08:56:35;;;;;;;;;;;;;;;8.23;100.00;96006.13;5009381;28;20289;-76
2023/03/29 08:59:02;;;;;;;;;;;;;;;8.38;100.00;96009.72;5012402;28;19976;-76
2023/03/29 09:01:31;;;;;;;;;;;;;;;8.48;100.00;96010.88;5012211;28;19922;-77
2023/03/29 09:04:03;;;;;;;;;;;;;;;8.64;100.00;95998.06;5012211;28;19925;-76
2023/03/29 09:06:29;;;;;;;;;;;;;;;8.76;100.00;95999.16;5012096;28;20042;-76
2023/03/29 09:08:56;;;;;;;;;;;;;;;8.91;100.00;96006.13;5011814;28;20304;-76
2023/03/29 09:11:37;;;;;;;;;;;;;;;9.07;100.00;96000.13;5011836;28;20273;-75
2023/03/29 09:14:19;;;;;;;3.00;1.60;;;;;;;9.41;100.00;96001.72;5010368;28;19932;-75
2023/03/29 09:16:53;;;;;;;2.53;1.63;;;;;;;9.65;100.00;95989.22;5008441;28;20485;-75
2023/03/29 09:19:28;;;;;;;3.47;1.10;;;;;;;9.97;99.36;95973.63;5011363;28;20062;-75
2023/03/29 09:22:07;;;;;;;2.33;1.42;;;;;;;9.97;100.00;95989.97;5005703;28;20057;-76
2023/03/29 09:24:56;;;;;;;2.20;1.45;;;;;;;10.07;100.00;95982.53;5010933;28;20050;-76
2023/03/29 09:27:26;;;;;;;2.70;1.20;;;;;;;10.16;95.41;95984.63;5008295;28;20042;-75
2023/03/29 09:30:03;;;;;;;3.92;1.30;;;;;;;10.18;98.04;95982.75;5011484;28;20045;-76
2023/03/29 09:32:34;;;;;;;2.53;1.45;;;;;;;10.22;98.79;95983.41;5006116;28;20050;-76
2023/03/29 09:35:17;;;;;;;2.78;1.70;;;;;;;10.15;99.98;95983.75;5007917;28;20124;-76
2023/03/29 09:37:43;;;;;;;;;;;;;;;10.19;100.00;95984.41;5009170;28;20456;-76
2023/03/29 09:40:12;;;;;;;;;;;;;;;10.15;97.05;95988.94;5011066;28;19928;-76
2023/03/29 09:42:39;;;;;;;;;;;;;;;10.14;100.00;95983.84;5011619;28;19929;-75
2023/03/29 09:45:07;;;;;;;;;;;;;;;10.16;98.13;95982.03;5011270;28;19921;-74
2023/03/29 09:47:35;;;;;;;;;;;;;;;10.21;100.00;95980.00;5010912;28;20024;-75
2023/03/29 09:50:04;;;;;;;;;;;;;;;10.32;100.00;95977.66;5011393;28;20284;-75
2023/03/29 09:52:32;;;;;;;;;;;;;;;10.49;98.47;95968.03;5011446;28;19922;-75
2023/03/29 09:54:59;;;;;;;;;;;;;;;10.83;95.28;95972.88;5011437;28;19928;-75
2023/03/29 09:57:27;;;;;;;;;;;;;;;11.11;95.71;95972.00;5010920;28;20517;-74
2023/03/29 09:59:54;;;;;;;;;;;;;;;11.37;93.97;95970.41;5011197;28;19926;-75
2023/03/29 10:02:20;;;;;;;;;;;;;;;11.41;88.33;95973.63;5011499;28;19921;-75
2023/03/29 10:04:54;;;;;;;;;;;;;;;11.62;88.46;95972.28;5011320;28;19921;-75
2023/03/29 10:07:20;;;;;;;;;;;;;;;11.95;92.25;95958.09;5011054;28;20008;-75
2023/03/29 10:09:49;;;;;;;;;;;;;;;12.06;86.77;95960.81;5011071;28;19925;-75
2023/03/29 10:12:15;;;;;;;;;;;;;;;12.33;83.75;95952.13;5007645;28;19929;-75
2023/03/29 10:14:42;;;;;;;;;;;;;;;12.44;79.28;95959.22;5010857;28;19921;-75
2023/03/29 10:17:13;;;;;;;;;;;;;;;12.82;74.70;95961.81;5010644;28;19953;-75
2023/03/29 10:19:47;;;;;;;;;;;;;;;13.15;72.54;95963.00;5011322;28;19921;-75
2023/03/29 10:22:16;;;;;;;;;;;;;;;13.35;70.24;95956.44;5007742;28;19976;-75
2023/03/29 10:24:50;;;;;;;;;;;;;;;13.39;67.44;95955.31;5011025;28;19922;-75
2023/03/29 10:27:19;;;;;;;;;;;;;;;13.41;68.91;95950.81;5011083;28;20392;-75
2023/03/29 10:29:45;;;;;;;;;;;;;;;13.69;66.39;95945.28;5014517;28;20405;-75
2023/03/29 10:32:16;;;;;;;;;;;;;;;13.90;65.01;95935.06;5014101;28;20307;-75
2023/03/29 10:34:43;;;;;;;;;;;;;;;13.98;65.54;95937.97;5014287;28;20388;-75
2023/03/29 10:37:10;;;;;;;;;;;;;;;13.94;62.95;95946.09;5013588;28;19921;-75
2023/03/29 10:39:36;;;;;;;;;;;;;;;13.91;63.58;95936.75;5014205;28;19932;-75
2023/03/29 10:42:04;;;;;;;;;;;;;;;14.25;62.55;95923.81;5013956;28;19936;-76
2023/03/29 10:44:31;;;;;;;;;;;;;;;14.47;60.00;95929.06;5014657;28;19929;-75
2023/03/29 10:47:07;;;;;;;;;;;;;;;14.35;60.04;95934.38;5013905;28;19921;-76
2023/03/29 10:49:39;;;;;;;;;;;;;;;14.33;60.33;95933.66;5014977;28;19976;-76
2023/03/29 10:52:06;;;;;;;;;;;;;;;14.46;59.77;95931.78;5014432;28;19922;-75
2023/03/29 10:54:32;;;;;;;;;;;;;;;14.49;57.50;95928.94;5014425;28;19921;-77
2023/03/29 10:57:03;;;;;;;;;;;;;;;14.36;53.17;95910.81;5013915;28;20445;-76
2023/03/29 10:59:31;;;;;;;;;;;;;;;14.42;54.49;95917.31;5014162;28;19921;-76
2023/03/29 11:02:20;;;;;;;;;;;;;;;14.72;56.77;95914.19;5014407;28;19928;-76
2023/03/29 11:04:48;;;;;;;;;;;;;;;14.70;52.44;95922.13;5011221;28;20439;-78
2023/03/29 11:07:22;;;;;;;;;;;;;;;14.55;53.84;95923.31;5014320;28;19926;-77
2023/03/29 11:09:51;;;;;;;;;;;;;;;14.50;54.09;95926.28;5011203;28;19926;-72
2023/03/29 11:12:22;;;;;;;;;;;;;;;14.26;52.96;95931.50;5014430;28;19925;-74
2023/03/29 11:14:56;;;;;;;;;;;;;;;14.22;53.05;95929.25;5009976;28;19927;-76
2023/03/29 11:17:28;;;;;;;;;;;;;;;14.03;52.42;95935.84;5012905;28;19921;-74
2023/03/29 11:20:05;;;;;;;;;;;;;;;13.90;52.21;95924.66;5013520;28;20021;-75
2023/03/29 11:22:39;;;;;;;;;;;;;;;13.80;52.52;95934.91;5013492;28;20380;-77
2023/03/29 11:25:14;;;;;;;;;;;;;;;13.74;52.64;95943.16;5014071;28;19921;-76
2023/03/29 11:27:45;;;;;;;;;;;;;;;13.70;53.93;95941.72;5014563;28;20025;-76
2023/03/29 11:30:18;;;;;;;;;;;;;;;13.80;52.99;95945.34;5011898;28;19929;-77
2023/03/29 11:32:48;;;;;;;;;;;;;;;13.70;52.41;95946.94;5014236;28;19995;-75
2023/03/29 11:35:22;;;;;;;;;;;;;;;13.62;53.50;95945.84;5013917;28;19953;-74
2023/03/29 11:37:52;;;;;;;;;;;;;;;13.65;52.91;95943.84;5005024;28;19925;-75
2023/03/29 11:40:34;;;;;;;;;;;;;;;13.68;53.81;95937.56;5009661;28;19929;-76
2023/03/29 11:43:03;;;;;;;;;;;;;;;13.77;54.75;95929.94;5013895;28;19921;-76
2023/03/29 11:45:34;;;;;;;;;;;;;;;13.71;55.10;95930.38;5013925;28;19929;-76
2023/03/29 11:48:02;;;;;;;;;;;;;;;13.65;53.90;95932.63;5013659;28;19926;-76
2023/03/29 11:50:31;;;;;;;;;;;;;;;13.52;54.39;95941.28;5013696;28;19929;-76
2023/03/29 11:53:01;;;;;;;;;;;;;;;13.45;52.75;95947.03;5014234;28;19967;-76
2023/03/29 11:55:28;;;;;;;;;;;;;;;13.39;53.79;95944.91;5013737;28;19921;-76
2023/03/29 11:57:56;;;;;;;;;;;;;;;13.36;54.71;95940.72;5013404;28;19925;-76
2023/03/29 12:00:24;;;;;;;;;;;;;;;13.35;55.57;95939.06;5014051;28;20272;-77
2023/03/29 12:02:55;;;;;;;;;;;;;;;13.49;53.70;95935.47;5013664;28;19925;-76